Thursday, August 25, 2016, 12:35 PM EDT

KDOV, Dover Air Force Base

Location: Dover, DE, United States Lat: 39.133
Local Time: 12:35 PM EDT (16:35 GMT) Lon: -75.467
Time Zone: US/Eastern Elev: 29 ft

Show me the last for .
Show Decoded

2016-08-25 11:58 METAR KDOV 251558Z AUTO 19014KT 10SM CLR 29/22 A3008 RMK AO2 SLP189 T02890224 $
                 =
2016-08-25 10:58 METAR KDOV 251458Z AUTO 20011KT 10SM CLR 28/22 A3010 RMK AO2 SLP196 T02790219 $
                 =
2016-08-25 09:58 METAR KDOV 251358Z AUTO 20010KT 10SM CLR 26/22 A3011 RMK AO2 SLP199 T02630218 $
                 =
2016-08-25 08:58 METAR KDOV 251258Z AUTO 19008KT 10SM CLR 24/23 A3011 =
2016-08-25 07:58 METAR KDOV 251158Z AUTO 17006KT 10SM FEW050 22/22 A3013 RMK AO2 SLP206 T02180218
                 10218 20187 55003 $ =
2016-08-25 06:58 METAR KDOV 251058Z AUTO 18004KT 10SM SCT050 20/20 A3013 RMK AO2 SLP206 T01970197
                 $ =
2016-08-25 05:58 METAR KDOV 250958Z AUTO 17006KT 10SM CLR 19/19 A3013 RMK AO2 SLP206 T01910191 $
                 =
2016-08-25 04:58 METAR KDOV 250858Z AUTO 18004KT 10SM BKN055 19/19 A3014 RMK AO2 SLP209 T01920192
                 $ =
2016-08-25 03:58 METAR KDOV 250758Z AUTO 18006KT 10SM CLR 19/19 A3013 RMK AO2 SLP206 T01910191 $
                 =
2016-08-25 02:58 METAR KDOV 250658Z AUTO 19006KT 10SM CLR 19/19 A3014 RMK AO2 SLPNO T01900190 $ =
2016-08-25 01:58 METAR KDOV 250558Z AUTO 18006KT 10SM CLR 19/19 A3016 RMK AO2 SLP216 T01880188
                 10230 20188 57010 $ =
2016-08-25 00:58 METAR KDOV 250458Z AUTO 19005KT 10SM CLR 20/20 A3018 RMK AO2 SLP223 T01960196
                 402790178 $ =
2016-08-24 23:58 METAR KDOV 250358Z AUTO 18007KT 10SM CLR 20/20 A3018 RMK AO2 SLP223 T02000199 $
                 =
2016-08-24 22:58 METAR KDOV 250258Z AUTO 18007KT 10SM CLR 21/20 A3019 RMK AO2 SLP226 T02070198 $
                 =
2016-08-24 21:58 METAR KDOV 250158Z AUTO 17007KT 10SM CLR 21/20 A3019 =
2016-08-24 20:58 METAR KDOV 250058Z AUTO 15009KT 10SM CLR 22/18 A3019 RMK AO2 SLP226 T02170184 $
                 =
2016-08-24 19:58 METAR KDOV 242358Z AUTO 14008KT 10SM CLR 23/18 A3018 RMK AO2 SLP223 60000
                 T02310183 10279 20231 55003 $ =
2016-08-24 18:58 METAR KDOV 242258Z AUTO 13007KT 10SM CLR 25/19 A3018 RMK AO2 SLP223 T02490187 $
                 =
2016-08-24 17:58 METAR KDOV 242158Z AUTO 12007KT 10SM CLR 27/18 A3019 RMK AO2 SLP226 T02660183 $
                 =
2016-08-24 16:58 METAR KDOV 242058Z AUTO 10011KT 10SM CLR 27/19 A3019 RMK AO2 SLP226 60000
                 T02660192 $ =
2016-08-24 15:58 METAR KDOV 241958Z AUTO 11009KT 10SM CLR 27/20 A3021 RMK AO2 SLP233 T02740201 $
                 =
2016-08-24 14:58 METAR KDOV 241858Z COR AUTO 10009KT 10SM FEW050 27/20 A3023 =
2016-08-24 14:00 METAR KDOV 241800Z AUTO 10010KT 10SM FEW037 BKN048 28/21 A3024 RMK AO2
                 RAB1758E00 $ =
2016-08-24 13:59 METAR KDOV 241759Z AUTO 10009KT 10SM -RA FEW037 BKN048 28/21 A3024 RMK AO2 RAB58
                 $ =
2016-08-24 13:58 METAR KDOV 241758Z 10009KT 10SM FEW037 BKN048 28/21 A3024 RMK SLP243 P0000 60000
                 T02760212 10279 20199 $ =
2016-08-24 13:22 METAR KDOV 241722Z COR AUTO 09005KT 10SM OVC046 27/20 A3025 =
2016-08-24 13:21 METAR KDOV 241721Z COR AUTO VRB04KT 10SM BKN047 27/20 A3025 =
2016-08-24 13:15 METAR KDOV 241715Z AUTO 13002KT 10SM BKN046 27/19 A3025 RMK AO2
                 DZB1609E1618RAB1634E1639RAB07E15 =
2016-08-24 13:07 METAR KDOV 241707Z AUTO 11002KT 10SM -RA BKN046 27/19 A3026 RMK AO2
                 DZB1609E1618RAB1634E1639RAB07 =
2016-08-24 13:01 METAR KDOV 241701Z 17002KT 10SM SCT047 27/19 A3026 =

Support USWX by starting your Amazon purchase here.